Time;durP1;ratioP1;P1;durP2;ratioP2;P2;SDS_P1;SDS_P2;PMS_P1;PMS_P2;Temp;Humidity;BMP_temperature;BMP_pressure;BME280_temperature;BME280_humidity;BME280_pressure;Samples;Min_cycle;Max_cycle;Signal;HPM_P1;HPM_P2
2023/07/27 00:00:05;;;;;;;;;;;;;;;27.10;43.40;99530.50;5099196;28;1972;-32
2023/07/27 00:02:31;;;;;;;;;;;;;;;23.64;52.28;99513.94;5099060;28;1166;-31
2023/07/27 00:04:56;;;;;;;;;;;;;;;25.86;44.51;99477.91;5099049;28;1090;-30
2023/07/27 00:07:23;;;;;;;;;;;;;;;26.34;43.80;99458.00;5099141;28;1062;-29
2023/07/27 00:09:49;;;;;;;;;;;;;;;26.93;42.72;99456.41;5099128;28;1021;-28
2023/07/27 00:12:14;;;;;;;;;;;;;;;27.05;42.52;99511.44;5099041;28;1066;-29
2023/07/27 00:14:40;;;;;;;;;;;;;;;26.71;44.22;99562.72;5098849;28;889;-28
2023/07/27 00:17:05;;;;;;;;;;;;;;;23.77;51.68;99553.50;5098891;28;1228;-28
2023/07/27 00:19:31;;;;;;;;;;;;;;;25.94;44.09;99573.88;5098683;28;1055;-26
2023/07/27 00:21:56;;;;;;;;;;;;;;;26.27;44.68;99616.22;5098438;28;1901;-26
2023/07/27 00:24:22;;;;;;;;;;;;;;;26.98;42.74;99618.53;5098518;28;1110;-28
2023/07/27 00:26:48;;;;;;;;;;;;;;;27.03;42.13;99599.88;5097596;28;996;-26
2023/07/27 00:29:14;;;;;;;;;;;;;;;26.82;44.29;99558.56;5098951;28;1086;-30
2023/07/27 00:31:39;;;;;;;;;;;;;;;23.62;52.08;99537.44;5080409;28;1129;-29
2023/07/27 00:34:05;;;;;;;;;;;;;;;25.83;44.36;99538.41;5098883;28;1089;-27
2023/07/27 00:36:30;;;;;;;;;;;;;;;26.25;44.24;99564.38;5080127;28;1067;-31
2023/07/27 00:38:56;;;;;;;;;;;;;;;26.91;42.25;99537.56;5089720;28;959;-28
2023/07/27 00:41:21;;;;;;;;;;;;;;;26.92;41.50;99535.72;5098372;28;1979;-28
2023/07/27 00:43:47;;;;;;;;;;;;;;;26.75;44.21;99536.16;5080489;28;1324;-27
2023/07/27 00:46:12;;;;;;;;;;;;;;;23.69;50.44;99559.84;5098660;28;1133;-28
2023/07/27 00:48:41;;;;;;;;;;;;;;;25.58;44.45;99576.63;5080321;28;1158;-30
2023/07/27 00:51:07;;;;;;;;;;;;;;;26.01;45.04;99612.41;5097784;28;935;-30
2023/07/27 00:53:32;;;;;;;;;;;;;;;26.98;41.26;99629.31;5097521;28;1092;-29
2023/07/27 00:55:58;;;;;;;;;;;;;;;26.86;42.56;99613.78;5098029;28;1068;-24
2023/07/27 00:58:24;;;;;;;;;;;;;;;26.76;44.07;99630.38;5098458;28;1053;-25
2023/07/27 01:00:49;;;;;;;;;;;;;;;23.68;50.63;99630.66;5097608;28;1975;-29
2023/07/27 01:03:16;;;;;;;;;;;;;;;25.80;43.92;99633.09;5079907;28;1103;-28
2023/07/27 01:05:41;;;;;;;;;;;;;;;26.16;44.49;99639.19;5097787;28;1176;-32
2023/07/27 01:08:07;;;;;;;;;;;;;;;26.98;41.58;99634.72;5098049;28;1097;-26
2023/07/27 01:10:51;;;;;;;;;;;;;;;26.82;41.99;99627.88;5079698;28;1059;-29
2023/07/27 01:13:20;;;;;;;;;;;;;;;26.58;43.33;99632.84;5079291;28;1171;-27
2023/07/27 01:15:46;;;;;;;;;;;;;;;23.76;50.66;99625.16;5084160;28;1048;-29
2023/07/27 01:18:20;;;;;;;;;;;;;;;25.96;43.50;99634.59;5079262;28;1054;-26
2023/07/27 01:20:47;;;;;;;;;;;;;;;26.55;42.57;99639.50;5066975;28;1955;-29
2023/07/27 01:23:31;;;;;;;;;;;;;;;26.62;43.72;99644.91;5079254;28;1190;-26
2023/07/27 01:26:15;;;;;;;;;;;;;;;27.25;40.50;99637.41;5097536;28;1205;-27
2023/07/27 01:28:54;;;;;;;;;;;;;;;26.60;39.56;99642.41;5079270;28;1134;-26
2023/07/27 01:31:23;;;;;;;;;;;;;;;24.67;46.67;99644.53;5065911;28;1146;-28
2023/07/27 01:33:50;;;;;;;;;;;;;;;26.23;44.05;99658.09;5097673;28;1062;-30
2023/07/27 01:36:26;;;;;;;;;;;;;;;26.69;41.54;99655.69;5079043;28;1174;-29
2023/07/27 01:38:51;;;;;;;;;;;;;;;26.42;43.45;99651.13;5078291;28;1251;-28
2023/07/27 01:41:17;;;;;;;;;;;;;;;27.11;40.77;99652.81;5097031;28;1893;-26
2023/07/27 01:43:43;;;;;;;;;;;;;;;25.23;41.99;99654.69;5079379;28;1047;-28
2023/07/27 01:46:08;;;;;;;;;;;;;;;24.59;45.36;99658.09;5097028;28;1117;-24
2023/07/27 01:48:34;;;;;;;;;;;;;;;26.16;43.46;99664.28;5079030;28;1189;-31
2023/07/27 01:51:00;;;;;;;;;;;;;;;26.57;41.65;99661.72;5078294;28;1082;-29
2023/07/27 01:53:27;;;;;;;;;;;;;;;26.35;43.43;99667.28;5097254;28;1217;-30
2023/07/27 01:55:53;;;;;;;;;;;;;;;27.11;40.20;99660.91;5079127;28;1075;-31
2023/07/27 01:58:18;;;;;;;;;;;;;;;25.80;40.92;99663.56;5078631;28;1313;-32
2023/07/27 02:00:44;;;;;;;;;;;;;;;24.65;45.45;99669.97;5078792;28;1969;-31
2023/07/27 02:03:10;;;;;;;;;;;;;;;26.33;41.53;99684.69;5096388;28;1003;-26
2023/07/27 02:05:35;;;;;;;;;;;;;;;26.60;41.43;99672.09;5078755;28;1122;-26
2023/07/27 02:08:01;;;;;;;;;;;;;;;26.36;42.83;99681.59;5061686;28;1051;-31
2023/07/27 02:10:26;;;;;;;;;;;;;;;26.97;40.20;99677.09;5078836;28;1071;-28
2023/07/27 02:13:00;;;;;;;;;;;;;;;26.63;39.40;99668.13;5078863;28;1260;-25
2023/07/27 02:15:27;;;;;;;;;;;;;;;24.61;45.85;99650.69;5078287;28;1022;-28
2023/07/27 02:17:54;;;;;;;;;;;;;;;26.31;41.67;99670.56;5096655;28;1057;-27
2023/07/27 02:20:19;;;;;;;;;;;;;;;26.65;40.79;99648.03;5095920;28;1902;-27
2023/07/27 02:22:45;;;;;;;;;;;;;;;26.32;42.82;99653.34;5096933;28;1053;-28
2023/07/27 02:25:10;;;;;;;;;;;;;;;27.06;40.19;99669.63;5078542;28;1114;-26
2023/07/27 02:27:36;;;;;;;;;;;;;;;26.43;38.75;99649.22;5061615;28;878;-29
2023/07/27 02:30:02;;;;;;;;;;;;;;;24.33;45.81;99657.66;5078374;28;1374;-28
2023/07/27 02:32:28;;;;;;;;;;;;;;;26.21;41.26;99668.25;5078754;28;1186;-32
2023/07/27 02:34:53;;;;;;;;;;;;;;;26.48;41.24;99689.91;5096238;28;1049;-27
2023/07/27 02:37:19;;;;;;;;;;;;;;;26.39;42.77;99673.91;5078332;28;1357;-30
2023/07/27 02:39:46;;;;;;;;;;;;;;;27.09;39.65;99681.88;5077949;28;1349;-29
2023/07/27 02:42:11;;;;;;;;;;;;;;;26.63;41.79;99689.72;5078381;28;1987;-25
2023/07/27 02:44:37;;;;;;;;;;;;;;;23.92;48.16;99679.69;5095854;28;1093;-31
2023/07/27 02:47:02;;;;;;;;;;;;;;;25.87;42.17;99693.22;5096056;28;1256;-27
2023/07/27 02:49:28;;;;;;;;;;;;;;;26.24;41.65;99701.00;5080957;28;1189;-27
2023/07/27 02:51:53;;;;;;;;;;;;;;;26.49;42.25;99700.47;5081985;28;1433;-27
2023/07/27 02:54:19;;;;;;;;;;;;;;;26.93;39.92;99708.22;5082366;28;1146;-24
2023/07/27 02:56:44;;;;;;;;;;;;;;;26.76;41.32;99697.00;5082668;28;1259;-25
2023/07/27 02:59:10;;;;;;;;;;;;;;;27.44;38.87;99711.34;5082450;28;1074;-22
2023/07/27 03:01:41;;;;;;;;;;;;;;;25.24;43.50;99720.97;5080223;28;1898;-23
2023/07/27 03:04:12;;;;;;;;;;;;;;;25.12;48.17;99728.75;5081516;28;1140;-21
2023/07/27 03:06:39;;;;;;;;;;;;;;;25.95;46.81;99729.09;5081429;28;1241;-23
2023/07/27 03:09:07;;;;;;;;;;;;;;;26.51;43.52;99722.69;5082109;28;1311;-23
2023/07/27 03:11:33;;;;;;;;;;;;;;;26.20;46.14;99707.00;5081535;28;1365;-21
2023/07/27 03:13:58;;;;;;;;;;;;;;;27.07;41.01;99730.69;5080584;28;2377;-24
2023/07/27 03:16:24;;;;;;;;;;;;;;;26.09;41.61;99760.44;5099542;28;1265;-24
2023/07/27 03:18:50;;;;;;;;;;;;;;;25.38;48.25;99762.28;5080942;28;1367;-24
2023/07/27 03:21:15;;;;;;;;;;;;;;;26.08;44.94;99752.56;5080513;28;1906;-23
2023/07/27 03:23:41;;;;;;;;;;;;;;;26.32;44.98;99724.28;5099404;28;1340;-24
2023/07/27 03:26:12;;;;;;;;;;;;;;;26.29;45.96;99711.22;5098991;28;1280;-24
2023/07/27 03:28:38;;;;;;;;;;;;;;;26.89;43.11;99715.06;5099521;28;1453;-22
2023/07/27 03:31:21;;;;;;;;;;;;;;;26.55;42.64;99706.09;5080713;28;1985;-22
2023/07/27 03:33:47;;;;;;;;;;;;;;;26.58;44.17;99709.22;5097949;28;1324;-23
2023/07/27 03:36:13;;;;;;;;;;;;;;;26.96;41.29;99709.69;5081125;28;1027;-25
2023/07/27 03:38:39;;;;;;;;;;;;;;;26.73;43.04;99706.34;5075945;28;1234;-24
2023/07/27 03:41:04;;;;;;;;;;;;;;;24.57;50.42;99716.63;5091218;28;1974;-24
2023/07/27 03:43:32;;;;;;;;;;;;;;;25.80;45.86;99711.22;5080866;28;1406;-21
2023/07/27 03:45:58;;;;;;;;;;;;;;;26.00;44.53;99715.84;5099240;28;2466;-28
2023/07/27 03:48:24;;;;;;;;;;;;;;;26.87;44.58;99728.78;5080612;28;1383;-32
2023/07/27 03:50:50;;;;;;;;;;;;;;;26.84;43.89;99729.16;5098770;28;1095;-23
2023/07/27 03:53:15;;;;;;;;;;;;;;;26.53;47.04;99712.53;5080431;28;1131;-30
2023/07/27 03:55:41;;;;;;;;;;;;;;;27.57;42.21;99707.78;5080720;28;1112;-27
2023/07/27 03:58:06;;;;;;;;;;;;;;;25.94;42.83;99713.97;5079967;28;1218;-28
2023/07/27 04:00:32;;;;;;;;;;;;;;;24.02;52.96;99714.31;5071573;28;1902;-27
2023/07/27 04:02:57;;;;;;;;;;;;;;;26.28;44.99;99728.41;5067408;28;1237;-31
2023/07/27 04:05:23;;;;;;;;;;;;;;;26.87;44.42;99707.19;5079815;28;1323;-30
2023/07/27 04:07:51;;;;;;;;;;;;;;;27.07;46.25;99698.28;5098572;28;1086;-28
2023/07/27 04:10:16;;;;;;;;;;;;;;;27.39;42.55;99722.75;5098372;28;1074;-31
2023/07/27 04:12:42;;;;;;;;;;;;;;;27.05;45.07;99742.72;5080366;28;1027;-29
2023/07/27 04:15:08;;;;;;;;;;;;;;;27.44;42.72;99738.34;5092984;28;2427;-26
2023/07/27 04:17:33;;;;;;;;;;;;;;;25.17;46.03;99721.75;5098441;28;1142;-22
2023/07/27 04:19:59;;;;;;;;;;;;;;;24.92;50.85;99716.78;5076561;28;1347;-25
2023/07/27 04:22:24;;;;;;;;;;;;;;;26.59;46.28;99726.25;5077985;28;1959;-26
2023/07/27 04:24:50;;;;;;;;;;;;;;;27.12;42.93;99741.69;5078214;28;1094;-22
2023/07/27 04:27:15;;;;;;;;;;;;;;;26.54;46.66;99737.66;5076918;28;1381;-28
2023/07/27 04:29:41;;;;;;;;;;;;;;;27.47;42.22;99740.63;5077986;28;1097;-26
2023/07/27 04:32:07;;;;;;;;;;;;;;;26.66;40.46;99748.66;5078271;28;1194;-25
2023/07/27 04:34:32;;;;;;;;;;;;;;;25.39;47.80;99763.97;5078035;28;1054;-24
2023/07/27 04:36:58;;;;;;;;;;;;;;;27.02;42.99;99774.50;5076637;28;1102;-24
2023/07/27 04:39:23;;;;;;;;;;;;;;;27.21;42.23;99771.19;5076039;28;1097;-22
2023/07/27 04:41:49;;;;;;;;;;;;;;;26.99;45.20;99766.75;5076703;28;1898;-29
2023/07/27 04:44:14;;;;;;;;;;;;;;;27.60;40.42;99774.88;5075940;28;1933;-25
2023/07/27 04:46:40;;;;;;;;;;;;;;;26.73;39.49;99771.09;5077750;28;1122;-24
2023/07/27 04:49:08;;;;;;;;;;;;;;;24.46;51.17;99777.09;5076627;28;1094;-23
2023/07/27 04:51:34;;;;;;;;;;;;;;;26.76;42.91;99773.38;5075950;28;1106;-29
2023/07/27 04:53:59;;;;;;;;;;;;;;;27.17;42.48;99768.06;5076115;28;1113;-28
2023/07/27 04:56:25;;;;;;;;;;;;;;;27.12;43.73;99775.94;5077817;28;1125;-27
2023/07/27 04:58:50;;;;;;;;;;;;;;;27.39;41.61;99768.66;5075495;28;1062;-26
2023/07/27 05:01:16;;;;;;;;;;;;;;;26.91;44.28;99772.34;5077290;28;1898;-29
2023/07/27 05:03:41;;;;;;;;;;;;;;;23.92;52.13;99771.03;5077127;28;883;-28
2023/07/27 05:06:07;;;;;;;;;;;;;;;26.27;43.30;99769.88;5077046;28;1459;-27
2023/07/27 05:08:32;;;;;;;;;;;;;;;26.78;44.05;99757.81;5077511;28;1173;-28
2023/07/27 05:10:58;;;;;;;;;;;;;;;27.68;40.63;99757.63;5076869;28;1096;-27
2023/07/27 05:13:23;;;;;;;;;;;;;;;27.67;41.03;99760.53;5077471;28;1170;-25
2023/07/27 05:15:49;;;;;;;;;;;;;;;27.16;44.39;99766.38;5075656;28;2753;-23
2023/07/27 05:18:14;;;;;;;;;;;;;;;24.76;48.93;99782.41;5078677;28;1173;-26
2023/07/27 05:20:40;;;;;;;;;;;;;;;26.55;43.82;99787.00;5097041;28;1906;-30
2023/07/27 05:23:05;;;;;;;;;;;;;;;26.44;45.19;99808.16;5097325;28;1119;-28
2023/07/27 05:25:31;;;;;;;;;;;;;;;27.59;41.31;99815.63;5097122;28;1053;-30
2023/07/27 05:27:56;;;;;;;;;;;;;;;27.56;41.89;99814.16;5096242;28;1078;-26
2023/07/27 05:30:22;;;;;;;;;;;;;;;27.24;43.90;99808.56;5096990;28;1023;-27
2023/07/27 05:32:47;;;;;;;;;;;;;;;25.17;46.74;99785.53;5097098;28;1072;-26
2023/07/27 05:35:13;;;;;;;;;;;;;;;26.71;41.84;99777.72;5097049;28;1181;-24
2023/07/27 05:37:40;;;;;;;;;;;;;;;27.60;40.47;99763.25;5097224;28;1153;-26
2023/07/27 05:40:06;;;;;;;;;;;;;;;27.95;39.12;99794.59;5096211;28;1945;-25
2023/07/27 05:42:32;;;;;;;;;;;;;;;27.72;40.55;99848.06;5083545;28;999;-26
2023/07/27 05:44:57;;;;;;;;;;;;;;;28.16;39.41;99901.63;5094616;28;2609;-29
2023/07/27 05:47:23;;;;;;;;;;;;;;;28.15;38.56;99948.66;5096636;28;1022;-31
2023/07/27 05:49:48;;;;;;;;;;;;;;;28.33;38.72;99985.06;5096459;28;1118;-25
2023/07/27 05:52:14;;;;;;;;;;;;;;;28.05;39.10;99946.38;5096903;28;1019;-31
2023/07/27 05:54:39;;;;;;;;;;;;;;;28.10;39.11;99873.56;5096712;28;1080;-32
2023/07/27 05:57:05;;;;;;;;;;;;;;;28.18;39.09;99831.09;5096542;28;1091;-27
2023/07/27 05:59:30;;;;;;;;;;;;;;;28.07;39.55;99860.47;5096571;28;1146;-28
2023/07/27 06:01:56;;;;;;;;;;;;;;;28.28;39.18;99917.22;5083988;28;1980;-25
2023/07/27 06:04:23;;;;;;;;;;;;;;;28.17;39.06;99933.06;5095552;28;1158;-25
2023/07/27 06:06:48;;;;;;;;;;;;;;;28.30;38.81;99972.75;5096497;28;1074;-30
2023/07/27 06:09:14;;;;;;;;;;;;;;;28.28;38.77;99926.16;5096423;28;1181;-29
2023/07/27 06:11:40;;;;;;;;;;;;;;;28.22;39.01;99886.44;5096030;28;1062;-24
2023/07/27 06:14:05;;;;;;;;;;;;;;;28.35;39.21;99904.53;5094786;28;1900;-30
2023/07/27 06:16:31;;;;;;;;;;;;;;;28.26;39.23;99914.72;5089177;28;1087;-26
2023/07/27 06:18:57;;;;;;;;;;;;;;;28.32;39.21;99896.81;5096068;28;1041;-29
2023/07/27 06:21:22;;;;;;;;;;;;;;;28.26;39.43;99897.69;5096031;28;1972;-32
2023/07/27 06:23:48;;;;;;;;;;;;;;;28.34;39.08;99892.06;5095467;28;1136;-30
2023/07/27 06:26:13;;;;;;;;;;;;;;;28.37;39.13;99910.56;5096050;28;1037;-31
2023/07/27 06:28:38;;;;;;;;;;;;;;;28.30;38.93;99907.00;5095932;28;1208;-28
2023/07/27 06:31:04;;;;;;;;;;;;;;;28.24;39.43;99895.19;5096278;28;1166;-30
2023/07/27 06:33:29;;;;;;;;;;;;;;;28.28;39.14;99906.41;5096291;28;1031;-31
2023/07/27 06:35:55;;;;;;;;;;;;;;;28.02;40.00;99933.28;5096294;28;1126;-26
2023/07/27 06:38:20;;;;;;;;;;;;;;;28.13;39.58;99941.81;5092597;28;1419;-30
2023/07/27 06:40:46;;;;;;;;;;;;;;;27.98;39.48;99940.13;5089351;28;1914;-26
2023/07/27 06:43:12;;;;;;;;;;;;;;;28.22;39.37;99956.75;5095814;28;1188;-29
2023/07/27 06:45:37;;;;;;;;;;;;;;;28.09;39.26;99952.19;5095999;28;1905;-31
2023/07/27 06:48:03;;;;;;;;;;;;;;;28.11;39.46;99907.66;5095255;28;1318;-32
2023/07/27 06:50:29;;;;;;;;;;;;;;;27.98;39.55;99877.94;5104134;28;1209;-28
2023/07/27 06:52:54;;;;;;;;;;;;;;;28.03;39.53;99875.44;5082050;28;1082;-25
2023/07/27 06:55:20;;;;;;;;;;;;;;;28.17;39.56;99872.72;5095867;28;1221;-31
2023/07/27 06:57:46;;;;;;;;;;;;;;;28.15;39.36;99851.31;5095515;28;1196;-31
2023/07/27 07:00:12;;;;;;;;;;;;;;;28.17;39.40;99861.91;5095504;28;1902;-26
2023/07/27 07:02:38;;;;;;;;;;;;;;;28.10;39.25;99875.44;5096277;28;1134;-30
2023/07/27 07:05:04;;;;;;;;;;;;;;;27.96;39.72;99880.06;5095307;28;843;-27
2023/07/27 07:07:29;;;;;;;;;;;;;;;28.26;39.17;99881.44;5095611;28;1069;-29
2023/07/27 07:09:55;;;;;;;;;;;;;;;28.04;39.40;99903.31;5095066;28;1166;-29
2023/07/27 07:12:20;;;;;;;;;;;;;;;28.09;39.32;99935.97;5096066;28;1031;-27
2023/07/27 07:14:46;;;;;;;;;;;;;;;28.18;39.10;99950.09;5094623;28;1805;-28
2023/07/27 07:17:11;;;;;;;;;;;;;;;28.01;39.29;99917.25;5087593;28;915;-30
2023/07/27 07:19:37;;;;;;;;;;;;;;;28.10;39.48;99910.59;5095170;28;1092;-28
2023/07/27 07:22:03;;;;;;;;;;;;;;;27.94;39.70;99909.16;5095704;28;1968;-33
2023/07/27 07:24:28;;;;;;;;;;;;;;;28.10;39.35;99906.03;5095680;28;1134;-32
2023/07/27 07:26:55;;;;;;;;;;;;;;;28.14;39.33;99900.19;5095703;28;1178;-27
2023/07/27 07:29:21;;;;;;;;;;;;;;;28.01;39.12;99904.56;5095281;28;1169;-34
2023/07/27 07:31:47;;;;;;;;;;;;;;;28.08;39.24;99920.78;5095831;28;1106;-32
2023/07/27 07:34:12;;;;;;;;;;;;;;;28.07;39.04;99975.91;5095812;28;1189;-29
2023/07/27 07:36:38;;;;;;;;;;;;;;;28.19;38.69;100047.25;5098446;28;1402;-28
2023/07/27 07:39:03;;;;;;;;;;;;;;;27.97;39.07;100011.47;5099171;28;986;-32
2023/07/27 07:41:29;;;;;;;;;;;;;;;28.02;38.91;99927.03;5092953;28;1995;-34
2023/07/27 07:43:55;;;;;;;;;;;;;;;27.60;39.53;99914.53;5097795;28;2242;-22
2023/07/27 07:46:20;;;;;;;;;;;;;;;26.90;40.81;99901.06;5087077;28;1032;-24
2023/07/27 07:48:47;;;;;;;;;;;;;;;27.32;38.46;99886.66;5096386;28;1377;-23
2023/07/27 07:51:12;;;;;;;;;;;;;;;27.16;38.93;99889.75;5099224;28;1083;-22
2023/07/27 07:53:38;;;;;;;;;;;;;;;26.71;41.67;99899.13;5098809;28;1173;-23
2023/07/27 07:56:04;;;;;;;;;;;;;;;26.89;41.41;99906.66;5099114;28;1137;-27
2023/07/27 07:58:29;;;;;;;;;;;;;;;27.07;41.61;99918.78;5099214;28;1212;-24
2023/07/27 08:00:55;;;;;;;;;;;;;;;26.90;41.89;99914.56;5098530;28;1897;-26
2023/07/27 08:03:21;;;;;;;;;;;;;;;27.10;40.84;99916.53;5099251;28;1628;-27
2023/07/27 08:05:46;;;;;;;;;;;;;;;26.97;41.28;99897.56;5098292;28;1062;-26
2023/07/27 08:08:13;;;;;;;;;;;;;;;27.06;40.84;99904.44;5098508;28;1280;-26
2023/07/27 08:10:38;;;;;;;;;;;;;;;26.76;42.25;99912.81;5099312;28;1315;-24
2023/07/27 08:13:04;;;;;;;;;;;;;;;26.80;42.43;99921.34;5099351;28;1577;-28
2023/07/27 08:15:29;;;;;;;;;;;;;;;26.72;42.44;99934.00;5098902;28;2506;-32
2023/07/27 08:17:55;;;;;;;;;;;;;;;26.59;42.93;99928.53;5097848;28;1543;-26
2023/07/27 08:20:21;;;;;;;;;;;;;;;26.69;42.19;99914.69;5097701;28;1898;-27
2023/07/27 08:22:47;;;;;;;;;;;;;;;26.61;42.36;99953.44;5097621;28;1335;-26
2023/07/27 08:25:12;;;;;;;;;;;;;;;26.76;41.94;99983.81;5098153;28;1319;-26
2023/07/27 08:27:41;;;;;;;;;;;;;;;26.63;42.26;99978.34;5099056;28;1367;-25
2023/07/27 08:30:07;;;;;;;;;;;;;;;27.33;40.52;99942.31;5097532;28;1267;-30
2023/07/27 08:32:32;;;;;;;;;;;;;;;27.74;39.93;99913.50;5098547;28;1240;-32
2023/07/27 08:34:58;;;;;;;;;;;;;;;27.83;39.97;99919.56;5098306;28;1370;-32
2023/07/27 08:37:23;;;;;;;;;;;;;;;27.54;40.05;99967.53;5097884;28;1074;-28
2023/07/27 08:39:50;;;;;;;;;;;;;;;27.21;41.12;99973.66;5098212;28;1154;-24
2023/07/27 08:42:15;;;;;;;;;;;;;;;27.01;41.50;99942.84;5097732;28;1914;-26
2023/07/27 08:44:43;;;;;;;;;;;;;;;27.17;40.17;99924.63;5096809;28;2328;-23
2023/07/27 08:47:09;;;;;;;;;;;;;;;27.37;39.31;99924.69;5097385;28;1422;-28
2023/07/27 08:49:34;;;;;;;;;;;;;;;27.25;40.41;99927.16;5097702;28;1241;-24
2023/07/27 08:52:00;;;;;;;;;;;;;;;27.36;40.43;99928.41;5097965;28;1006;-27
2023/07/27 08:54:26;;;;;;;;;;;;;;;27.07;41.07;99919.63;5097561;28;881;-24
2023/07/27 08:56:51;;;;;;;;;;;;;;;27.14;41.03;99922.34;5097780;28;1026;-25
2023/07/27 08:59:16;;;;;;;;;;;;;;;27.42;39.86;99915.13;5097200;28;1085;-30
2023/07/27 09:01:42;;;;;;;;;;;;;;;27.66;39.72;99911.00;5097522;28;1996;-24
2023/07/27 09:04:07;;;;;;;;;;;;;;;27.55;40.00;99882.72;5097615;28;1007;-25
2023/07/27 09:06:40;;;;;;;;;;;;;;;27.64;38.60;99859.06;5097109;28;935;-23
2023/07/27 09:09:12;;;;;;;;;;;;;;;27.58;39.21;99876.91;5098276;28;1149;-24
2023/07/27 09:11:38;;;;;;;;;;;;;;;27.71;39.77;99913.94;5097507;28;1108;-24
2023/07/27 09:14:04;;;;;;;;;;;;;;;27.30;40.45;99941.91;5095820;28;2359;-23
2023/07/27 09:16:32;;;;;;;;;;;;;;;27.27;40.61;99929.66;5090150;28;1007;-22
2023/07/27 09:18:58;;;;;;;;;;;;;;;27.41;40.34;99914.28;5065773;28;1253;-24
2023/07/27 09:21:23;;;;;;;;;;;;;;;27.60;39.19;99936.13;5078680;28;1909;-23
2023/07/27 09:23:49;;;;;;;;;;;;;;;27.42;39.96;99988.06;5079110;28;1043;-22
2023/07/27 09:26:23;;;;;;;;;;;;;;;27.09;40.79;100000.41;5097667;28;1003;-22
2023/07/27 09:28:48;;;;;;;;;;;;;;;26.83;41.48;99975.75;5079064;28;1086;-22
2023/07/27 09:31:14;;;;;;;;;;;;;;;26.71;42.16;99969.28;5096078;28;1197;-21
2023/07/27 09:33:39;;;;;;;;;;;;;;;26.97;41.80;99984.75;5096494;28;1339;-24
2023/07/27 09:36:07;;;;;;;;;;;;;;;26.88;41.73;100037.22;5089270;28;1263;-25
2023/07/27 09:38:32;;;;;;;;;;;;;;;26.67;42.48;100089.38;5096368;28;1141;-23
2023/07/27 09:40:58;;;;;;;;;;;;;;;26.40;43.07;100090.00;5095009;28;1917;-25
2023/07/27 09:43:24;;;;;;;;;;;;;;;26.17;43.51;100058.69;5069849;28;1318;-23
2023/07/27 09:45:54;;;;;;;;;;;;;;;26.84;42.38;100012.50;5092222;28;2555;-22
2023/07/27 09:48:20;;;;;;;;;;;;;;;27.34;40.06;100014.19;5096809;28;1177;-25
2023/07/27 09:50:45;;;;;;;;;;;;;;;27.51;40.18;100017.38;5096880;28;1160;-24
2023/07/27 09:53:11;;;;;;;;;;;;;;;27.55;39.66;100007.00;5096878;28;1042;-25
2023/07/27 09:55:37;;;;;;;;;;;;;;;27.65;39.58;100008.47;5096462;28;1101;-25
2023/07/27 09:58:02;;;;;;;;;;;;;;;27.29;40.40;100032.06;5096019;28;994;-30
2023/07/27 10:00:29;;;;;;;;;;;;;;;26.82;42.22;100056.91;5077805;28;1914;-25
2023/07/27 10:02:55;;;;;;;;;;;;;;;26.92;42.26;100067.34;5096641;28;1007;-26
2023/07/27 10:05:22;;;;;;;;;;;;;;;26.59;42.92;100061.50;5077950;28;1150;-24
2023/07/27 10:07:47;;;;;;;;;;;;;;;26.83;42.30;100032.41;5096673;28;1184;-27
2023/07/27 10:10:26;;;;;;;;;;;;;;;26.84;41.95;100012.50;5096239;28;1161;-24
2023/07/27 10:12:54;;;;;;;;;;;;;;;27.24;40.44;99997.56;5096417;28;1122;-22
2023/07/27 10:15:20;;;;;;;;;;;;;;;27.11;40.98;100028.03;5087429;28;2447;-24
2023/07/27 10:17:46;;;;;;;;;;;;;;;26.64;42.84;100034.78;5096449;28;1099;-27
2023/07/27 10:20:27;;;;;;;;;;;;;;;26.73;42.82;100010.34;5095488;28;1132;-26
2023/07/27 10:23:13;;;;;;;;;;;;;;;26.67;42.48;99966.13;5096407;28;1217;-27
2023/07/27 10:25:57;;;;;;;;;;;;;;;25.58;46.15;99961.72;5095981;28;1840;-29
2023/07/27 10:28:32;;;;;;;;;;;;;;;24.62;49.05;99947.31;5095369;28;1128;-26
2023/07/27 10:31:16;;;;;;;;;;;;;;;24.94;47.61;99932.66;5095662;28;923;-25
2023/07/27 10:33:46;;;;;;;;;;;;;;;25.60;45.69;99904.97;5096621;28;1115;-26
2023/07/27 10:36:12;;;;;;;;;;;;;;;25.29;45.65;99883.53;5078041;28;1632;-28
2023/07/27 10:38:37;;;;;;;;;;;;;;;25.71;45.22;99890.19;5096103;28;1034;-25
2023/07/27 10:41:13;;;;;;;;;;;;;;;25.91;44.78;99906.47;5096052;28;1909;-26
2023/07/27 10:43:58;;;;;;;;;;;;;;;25.37;45.43;99917.59;5087581;28;1402;-27
2023/07/27 10:46:24;;;;;;;;;;;;;;;24.40;48.07;99894.28;5083077;28;1333;-28
2023/07/27 10:48:57;;;;;;;;;;;;;;;24.16;47.60;99882.78;5096052;28;1102;-25
2023/07/27 10:51:24;;;;;;;;;;;;;;;24.09;48.24;99881.78;5095631;28;1086;-25
2023/07/27 10:53:49;;;;;;;;;;;;;;;24.49;46.74;99888.81;5095657;28;1157;-25
2023/07/27 10:56:15;;;;;;;;;;;;;;;24.11;47.60;99887.84;5096409;28;1134;-24
2023/07/27 10:58:40;;;;;;;;;;;;;;;24.12;47.95;99899.44;5095913;28;1137;-23
2023/07/27 11:01:06;;;;;;;;;;;;;;;24.30;47.46;99907.16;5077074;28;1976;-24
2023/07/27 11:03:31;;;;;;;;;;;;;;;24.21;47.63;99947.56;5096066;28;1070;-24
2023/07/27 11:06:01;;;;;;;;;;;;;;;24.42;47.78;100005.13;5077138;28;1252;-24
2023/07/27 11:08:27;;;;;;;;;;;;;;;24.69;47.53;100027.06;5095804;28;1081;-23
2023/07/27 11:10:52;;;;;;;;;;;;;;;24.74;46.76;100025.69;5098692;28;1092;-24
2023/07/27 11:13:22;;;;;;;;;;;;;;;25.13;46.95;100048.81;5099721;28;1064;-23
2023/07/27 11:15:47;;;;;;;;;;;;;;;25.22;46.93;100046.00;5099298;28;2357;-23
2023/07/27 11:18:13;;;;;;;;;;;;;;;25.30;46.03;100059.38;5099710;28;1149;-25
2023/07/27 11:20:39;;;;;;;;;;;;;;;25.20;46.09;100062.34;5080924;28;1909;-21
2023/07/27 11:23:04;;;;;;;;;;;;;;;24.86;46.70;100044.88;5081663;28;1158;-24
2023/07/27 11:25:31;;;;;;;;;;;;;;;24.32;48.50;100012.63;5099164;28;1050;-25
2023/07/27 11:27:57;;;;;;;;;;;;;;;23.97;49.21;99935.97;5099491;28;1050;-24
2023/07/27 11:30:22;;;;;;;;;;;;;;;23.80;49.09;99853.91;5078917;28;1142;-23
2023/07/27 11:32:56;;;;;;;;;;;;;;;24.04;48.63;99819.75;5081439;28;1031;-24
2023/07/27 11:35:22;;;;;;;;;;;;;;;24.07;47.85;99785.25;5098936;28;1165;-25
2023/07/27 11:37:47;;;;;;;;;;;;;;;24.19;47.76;99782.97;5099169;28;1161;-24
2023/07/27 11:40:19;;;;;;;;;;;;;;;24.14;47.74;99787.22;5099203;28;1502;-25
2023/07/27 11:42:44;;;;;;;;;;;;;;;24.17;48.97;99905.94;5099207;28;1461;-27
2023/07/27 11:45:10;;;;;;;;;;;;;;;25.03;47.96;100032.09;5098525;28;2299;-23
2023/07/27 11:47:36;;;;;;;;;;;;;;;24.84;48.85;100031.59;5081165;28;1343;-26
2023/07/27 11:50:02;;;;;;;;;;;;;;;25.00;48.65;100043.25;5099168;28;1407;-28
2023/07/27 11:52:27;;;;;;;;;;;;;;;24.93;48.40;100057.44;5081485;28;1391;-24
2023/07/27 11:54:54;;;;;;;;;;;;;;;25.06;48.07;100048.72;5093460;28;1426;-23
2023/07/27 11:57:24;;;;;;;;;;;;;;;25.18;48.14;100061.69;5098567;28;1398;-25
2023/07/27 12:00:01;;;;;;;;;;;;;;;25.01;48.23;100063.72;5098767;28;1429;-25
2023/07/27 12:02:30;;;;;;;;;;;;;;;25.13;47.20;100059.56;5097850;28;1960;-23
2023/07/27 12:04:55;;;;;;;;;;;;;;;24.96;47.84;100055.41;5098130;28;1373;-22
2023/07/27 12:07:21;;;;;;;;;;;;;;;25.15;47.11;100046.75;5093038;28;1168;-26
2023/07/27 12:09:46;;;;;;;;;;;;;;;25.13;47.25;100032.66;5098667;28;1429;-27
2023/07/27 12:12:12;;;;;;;;;;;;;;;25.20;46.40;100021.97;5080068;28;1472;-26
2023/07/27 12:14:40;;;;;;;;;;;;;;;25.17;47.04;100019.66;5097751;28;2409;-24
2023/07/27 12:17:08;;;;;;;;;;;;;;;25.07;47.72;100007.31;5098727;28;1434;-24
2023/07/27 12:19:34;;;;;;;;;;;;;;;25.18;47.40;100002.47;5098886;28;1057;-26
2023/07/27 12:21:59;;;;;;;;;;;;;;;25.18;47.88;100002.47;5096959;28;1901;-24
2023/07/27 12:24:25;;;;;;;;;;;;;;;25.21;47.52;99990.53;5098457;28;1150;-27
2023/07/27 12:26:50;;;;;;;;;;;;;;;24.83;49.04;99989.59;5097858;28;1074;-24
2023/07/27 12:29:16;;;;;;;;;;;;;;;24.42;49.58;99982.81;5097910;28;1074;-25
2023/07/27 12:31:41;;;;;;;;;;;;;;;24.18;50.97;99969.44;5098255;28;1070;-22
2023/07/27 12:34:07;;;;;;;;;;;;;;;24.02;51.48;99967.69;5098500;28;1130;-23
2023/07/27 12:36:32;;;;;;;;;;;;;;;24.08;51.26;99956.22;5098054;28;1496;-25
2023/07/27 12:38:58;;;;;;;;;;;;;;;24.19;50.77;99951.47;5098084;28;1093;-24
2023/07/27 12:41:23;;;;;;;;;;;;;;;24.06;51.61;99952.88;5097993;28;1898;-23
2023/07/27 12:43:49;;;;;;;;;;;;;;;23.90;52.68;99955.69;5097214;28;1237;-24
2023/07/27 12:46:14;;;;;;;;;;;;;;;24.16;51.64;99962.50;5097428;28;2696;-25
2023/07/27 12:48:41;;;;;;;;;;;;;;;24.74;49.47;99958.44;5098430;28;1181;-27
2023/07/27 12:51:07;;;;;;;;;;;;;;;25.28;48.53;99959.13;5097930;28;1030;-24